createdAt,value
2023-01-18T00:02:30.205Z,-1.50
2023-01-18T00:05:31.183Z,-1.40
2023-01-18T00:08:33.389Z,-1.30
2023-01-18T00:11:34.238Z,-1.40
2023-01-18T00:14:34.958Z,-1.60
2023-01-18T00:17:47.782Z,-1.50
2023-01-18T00:20:48.919Z,-1.40
2023-01-18T00:23:50.093Z,-1.40
2023-01-18T00:26:51.360Z,-1.50
2023-01-18T00:29:52.181Z,-1.40
2023-01-18T00:32:57.904Z,-1.30
2023-01-18T00:36:03.018Z,-1.30
2023-01-18T00:39:04.969Z,-1.30
2023-01-18T00:42:24.423Z,-1.10
2023-01-18T00:45:25.698Z,-1.10
2023-01-18T00:48:26.939Z,-0.90
2023-01-18T00:51:27.680Z,-0.90
2023-01-18T00:54:28.753Z,-0.80
2023-01-18T00:57:30.182Z,-0.80
2023-01-18T01:00:31.201Z,-0.90
2023-01-18T01:03:54.556Z,-0.90
2023-01-18T01:06:55.668Z,-0.90
2023-01-18T01:09:58.086Z,-0.90
2023-01-18T01:13:18.194Z,-0.90
2023-01-18T01:16:37.840Z,-0.90
2023-01-18T01:19:56.737Z,-0.90
2023-01-18T01:23:16.391Z,-0.80
2023-01-18T01:26:17.541Z,-0.80
2023-01-18T01:29:18.467Z,-0.70
2023-01-18T01:32:19.537Z,-0.50
2023-01-18T01:35:20.804Z,-0.40
2023-01-18T01:38:21.609Z,-0.30
2023-01-18T01:41:34.350Z,-0.20
2023-01-18T01:44:35.076Z,-0.10
2023-01-18T01:47:43.655Z,-0.20
2023-01-18T01:50:44.364Z,-0.10
2023-01-18T01:53:49.250Z,0.00
2023-01-18T01:56:59.845Z,-0.10
2023-01-18T02:00:10.331Z,-0.20
2023-01-18T02:03:20.653Z,0.60
2023-01-18T02:06:32.485Z,0.70
2023-01-18T02:09:33.201Z,0.50
2023-01-18T02:12:38.518Z,0.40
2023-01-18T02:15:51.092Z,0.10
2023-01-18T02:19:15.593Z,-0.20
2023-01-18T02:22:47.710Z,-0.60
2023-01-18T02:26:26.928Z,-0.80
2023-01-18T02:29:40.742Z,-1.00
2023-01-18T02:32:51.093Z,-1.00
2023-01-18T02:35:57.003Z,-0.90
2023-01-18T02:39:10.822Z,-0.80
2023-01-18T02:42:43.022Z,-0.80
2023-01-18T02:46:07.515Z,-0.80
2023-01-18T02:49:18.369Z,-0.70
2023-01-18T02:52:49.894Z,-0.40
2023-01-18T02:56:05.488Z,-0.30
2023-01-18T02:59:18.845Z,-0.10
2023-01-18T03:02:24.711Z,0.00
2023-01-18T03:05:28.894Z,0.10
2023-01-18T03:08:43.292Z,0.20
2023-01-18T03:12:15.400Z,0.20
2023-01-18T03:15:57.619Z,0.30
2023-01-18T03:19:30.530Z,0.40
2023-01-18T03:23:15.018Z,0.50
2023-01-18T03:26:20.985Z,0.50
2023-01-18T03:29:42.569Z,0.50
2023-01-18T03:33:01.593Z,0.40
2023-01-18T03:36:05.600Z,0.40
2023-01-18T03:39:34.149Z,0.40
2023-01-18T03:43:03.648Z,0.30
2023-01-18T03:46:08.244Z,0.30
2023-01-18T03:49:10.085Z,0.30
2023-01-18T03:52:40.887Z,0.30
2023-01-18T03:55:50.438Z,0.30
2023-01-18T03:58:57.428Z,0.30
2023-01-18T04:01:59.195Z,0.30
2023-01-18T04:05:03.767Z,0.30
2023-01-18T04:08:04.893Z,0.30
2023-01-18T04:11:06.388Z,0.30
2023-01-18T04:14:07.141Z,0.30
2023-01-18T04:17:07.935Z,0.40
2023-01-18T04:20:10.396Z,0.40
2023-01-18T04:23:11.242Z,0.40
2023-01-18T04:26:15.439Z,0.40
2023-01-18T04:29:16.636Z,0.50
2023-01-18T04:32:17.402Z,0.50
2023-01-18T04:35:18.585Z,0.60
2023-01-18T04:38:20.384Z,0.50
2023-01-18T04:41:22.242Z,0.40
2023-01-18T04:44:23.287Z,0.40
2023-01-18T04:47:24.477Z,0.40
2023-01-18T04:50:25.414Z,0.50
2023-01-18T04:53:26.487Z,0.60
2023-01-18T04:56:27.383Z,0.70
2023-01-18T04:59:28.725Z,0.70
2023-01-18T05:02:29.528Z,0.80
2023-01-18T05:05:30.662Z,0.80
2023-01-18T05:08:31.647Z,0.80
2023-01-18T05:11:32.342Z,0.80
2023-01-18T05:14:33.682Z,0.80
2023-01-18T05:17:35.340Z,0.70
2023-01-18T05:20:36.518Z,0.70
2023-01-18T05:23:39.042Z,0.70
2023-01-18T05:26:40.262Z,0.70
2023-01-18T05:29:41.480Z,0.60
2023-01-18T05:32:42.903Z,0.60
2023-01-18T05:35:55.353Z,0.80
2023-01-18T05:38:56.486Z,0.90
2023-01-18T05:42:00.039Z,0.90
2023-01-18T05:45:01.139Z,0.90
2023-01-18T05:48:02.096Z,1.00
2023-01-18T05:51:11.436Z,1.10
2023-01-18T05:54:13.430Z,1.00
2023-01-18T05:57:14.645Z,1.00
2023-01-18T06:00:15.943Z,1.00
2023-01-18T06:03:17.168Z,0.90
2023-01-18T06:06:18.160Z,0.80
2023-01-18T06:09:18.908Z,0.70
2023-01-18T06:12:19.934Z,0.60
2023-01-18T06:15:21.111Z,0.60
2023-01-18T06:18:24.472Z,0.70
2023-01-18T06:21:25.326Z,0.80
2023-01-18T06:24:26.474Z,0.90
2023-01-18T06:27:27.321Z,1.00
2023-01-18T06:30:28.493Z,1.00
2023-01-18T06:33:29.164Z,0.90
2023-01-18T06:36:30.028Z,1.00
2023-01-18T06:39:31.064Z,1.10
2023-01-18T06:42:33.308Z,1.20
2023-01-18T06:45:35.243Z,1.20
2023-01-18T06:48:36.491Z,1.20
2023-01-18T06:51:38.855Z,1.10
2023-01-18T06:54:39.765Z,1.10
2023-01-18T06:57:41.858Z,1.10
2023-01-18T07:00:42.710Z,1.10
2023-01-18T07:03:43.477Z,1.10
2023-01-18T07:06:44.352Z,1.00
2023-01-18T07:09:44.940Z,1.00
2023-01-18T07:12:49.068Z,1.00
2023-01-18T07:16:01.153Z,0.90
2023-01-18T07:19:02.233Z,0.90
2023-01-18T07:22:03.152Z,1.00
2023-01-18T07:25:04.555Z,1.00
2023-01-18T07:28:05.813Z,1.00
2023-01-18T07:31:08.345Z,1.00
2023-01-18T07:34:13.549Z,1.00
2023-01-18T07:37:14.628Z,1.00
2023-01-18T07:40:15.913Z,0.90
2023-01-18T07:43:18.390Z,1.00
2023-01-18T07:46:20.943Z,0.90
2023-01-18T07:49:22.033Z,0.90
2023-01-18T07:52:23.032Z,0.90
2023-01-18T07:55:23.780Z,0.90
2023-01-18T07:58:24.499Z,0.80
2023-01-18T08:01:25.699Z,0.80
2023-01-18T08:04:26.603Z,0.80
2023-01-18T08:07:27.281Z,0.80
2023-01-18T08:10:28.535Z,0.70
2023-01-18T08:13:30.201Z,0.70
2023-01-18T08:16:30.911Z,0.70
2023-01-18T08:19:32.424Z,0.60
2023-01-18T08:22:33.419Z,0.60
2023-01-18T08:25:34.176Z,0.60
2023-01-18T08:28:35.448Z,0.60
2023-01-18T08:31:36.615Z,0.60
2023-01-18T08:34:38.401Z,0.60
2023-01-18T08:37:39.342Z,0.60
2023-01-18T08:40:40.609Z,0.60
2023-01-18T08:43:41.612Z,0.60
2023-01-18T08:46:42.435Z,0.50
2023-01-18T08:49:43.545Z,0.50
2023-01-18T08:52:44.432Z,0.60
2023-01-18T08:55:45.216Z,0.60
2023-01-18T08:58:46.494Z,0.70
2023-01-18T09:01:47.492Z,0.60
2023-01-18T09:04:48.833Z,0.70
2023-01-18T09:07:51.039Z,0.70
2023-01-18T09:10:51.739Z,0.70
2023-01-18T09:14:01.285Z,0.80
2023-01-18T09:17:03.731Z,1.10
2023-01-18T09:20:09.959Z,1.10
2023-01-18T09:23:10.977Z,1.10
2023-01-18T09:26:20.399Z,1.00
2023-01-18T09:29:21.663Z,1.00
2023-01-18T09:32:23.045Z,1.10
2023-01-18T09:35:24.411Z,1.20
2023-01-18T09:38:25.457Z,1.10
2023-01-18T09:41:35.387Z,1.00
2023-01-18T09:44:42.992Z,0.90
2023-01-18T09:47:47.406Z,0.90
2023-01-18T09:50:49.009Z,0.80
2023-01-18T09:54:19.558Z,0.90
2023-01-18T09:58:03.882Z,1.10
2023-01-18T10:01:12.841Z,1.20
2023-01-18T10:04:29.886Z,1.20
2023-01-18T10:07:36.776Z,1.10
2023-01-18T10:10:50.132Z,1.00
2023-01-18T10:14:05.331Z,1.00
2023-01-18T10:17:24.253Z,1.10
2023-01-18T10:20:53.219Z,1.20
2023-01-18T10:24:31.021Z,1.20
2023-01-18T10:28:12.992Z,1.40
2023-01-18T10:31:52.277Z,1.40
2023-01-18T10:34:53.460Z,1.50
2023-01-18T10:38:03.662Z,2.50
2023-01-18T10:41:05.609Z,3.00
2023-01-18T10:44:09.452Z,2.80
2023-01-18T10:47:12.151Z,2.70
2023-01-18T10:50:18.713Z,2.50
2023-01-18T10:53:36.686Z,2.40
2023-01-18T10:56:37.883Z,2.20
2023-01-18T10:59:43.149Z,2.00
2023-01-18T11:02:46.085Z,2.00
2023-01-18T11:05:47.229Z,2.10
2023-01-18T11:08:50.693Z,2.10
2023-01-18T11:12:10.079Z,2.10
2023-01-18T11:15:14.031Z,2.30
2023-01-18T11:18:17.544Z,2.30
2023-01-18T11:21:18.703Z,2.40
2023-01-18T11:24:31.913Z,2.50
2023-01-18T11:27:33.097Z,2.60
2023-01-18T11:30:34.878Z,2.70
2023-01-18T11:33:47.877Z,2.50
2023-01-18T11:36:50.054Z,2.40
2023-01-18T11:39:50.896Z,2.40
2023-01-18T11:42:58.629Z,2.40
2023-01-18T11:46:09.128Z,2.40
2023-01-18T11:49:51.113Z,2.60
2023-01-18T11:53:05.017Z,3.00
2023-01-18T11:56:32.394Z,3.60
2023-01-18T11:59:41.903Z,4.00
2023-01-18T12:03:11.858Z,4.00
2023-01-18T12:06:37.033Z,4.40
2023-01-18T12:09:54.366Z,5.50
2023-01-18T12:13:41.440Z,5.60
2023-01-18T12:16:59.476Z,7.20
2023-01-18T12:20:25.372Z,7.50
2023-01-18T12:23:49.311Z,6.20
2023-01-18T12:27:06.628Z,4.80
2023-01-18T12:30:37.795Z,4.10
2023-01-18T12:33:59.014Z,3.40
2023-01-18T12:37:37.789Z,2.70
2023-01-18T12:41:12.476Z,2.50
2023-01-18T12:44:41.528Z,2.50
2023-01-18T12:48:12.973Z,2.20
2023-01-18T12:51:24.023Z,2.00
2023-01-18T12:54:46.121Z,1.90
2023-01-18T12:57:52.684Z,1.90
2023-01-18T13:01:05.971Z,1.90
2023-01-18T13:04:20.758Z,1.90
2023-01-18T13:07:33.903Z,2.00
2023-01-18T13:10:37.283Z,2.20
2023-01-18T13:13:41.872Z,2.10
2023-01-18T13:17:37.956Z,2.10
2023-01-18T13:21:18.401Z,1.90
2023-01-18T13:24:46.709Z,1.70
2023-01-18T13:28:03.440Z,1.50
2023-01-18T13:31:06.470Z,1.40
2023-01-18T13:34:24.280Z,1.30
2023-01-18T13:37:55.897Z,1.30
2023-01-18T13:41:04.668Z,1.60
2023-01-18T13:44:32.409Z,1.80
2023-01-18T13:47:39.545Z,1.80
2023-01-18T13:50:42.700Z,1.90
2023-01-18T13:53:50.722Z,1.90
2023-01-18T13:57:09.689Z,1.90
2023-01-18T14:00:24.746Z,1.90
2023-01-18T14:03:31.722Z,1.90
2023-01-18T14:06:42.251Z,1.80
2023-01-18T14:09:47.866Z,1.80
2023-01-18T14:12:52.255Z,1.70
2023-01-18T14:15:54.669Z,1.60
2023-01-18T14:19:04.380Z,1.50
2023-01-18T14:22:14.053Z,1.40
2023-01-18T14:25:39.328Z,1.40
2023-01-18T14:28:59.574Z,1.30
2023-01-18T14:32:05.639Z,1.10
2023-01-18T14:35:25.450Z,1.10
2023-01-18T14:38:30.161Z,0.90
2023-01-18T14:41:31.495Z,0.90
2023-01-18T14:44:57.866Z,1.00
2023-01-18T14:48:17.377Z,1.00
2023-01-18T14:51:25.781Z,1.00
2023-01-18T14:54:26.978Z,0.90
2023-01-18T14:57:28.261Z,0.90
2023-01-18T15:00:29.312Z,0.90
2023-01-18T15:03:32.260Z,0.90
2023-01-18T15:06:45.049Z,0.90
2023-01-18T15:09:47.547Z,0.80
2023-01-18T15:12:54.426Z,0.70
2023-01-18T15:16:01.982Z,0.70
2023-01-18T15:19:03.224Z,0.60
2023-01-18T15:22:08.518Z,0.60
2023-01-18T15:25:32.006Z,0.60
2023-01-18T15:28:34.547Z,0.50
2023-01-18T15:31:44.798Z,0.50
2023-01-18T15:34:50.253Z,0.50
2023-01-18T15:37:51.789Z,0.50
2023-01-18T15:41:11.468Z,0.40
2023-01-18T15:44:40.015Z,0.40
2023-01-18T15:47:50.331Z,0.40
2023-01-18T15:57:20.200Z,0.40
2023-01-18T16:00:45.943Z,0.30
2023-01-18T16:03:50.050Z,0.30
2023-01-18T16:06:51.147Z,0.30
2023-01-18T16:10:17.050Z,0.30
2023-01-18T16:13:31.907Z,0.20
2023-01-18T16:16:39.434Z,0.20
2023-01-18T16:19:57.105Z,0.20
2023-01-18T16:23:21.341Z,0.20
2023-01-18T16:26:30.669Z,0.20
2023-01-18T16:29:45.260Z,0.20
2023-01-18T16:32:47.335Z,0.20
2023-01-18T16:35:49.623Z,0.20
2023-01-18T16:38:50.690Z,0.20
2023-01-18T16:41:58.135Z,0.20
2023-01-18T16:44:58.887Z,0.20
2023-01-18T16:48:00.470Z,0.20
2023-01-18T16:51:01.552Z,0.10
2023-01-18T16:54:02.585Z,0.20
2023-01-18T16:57:04.814Z,0.20
2023-01-18T17:00:26.148Z,0.10
2023-01-18T17:03:27.852Z,0.10
2023-01-18T17:06:29.478Z,0.10
2023-01-18T17:09:32.456Z,0.10
2023-01-18T17:12:35.731Z,0.10
2023-01-18T17:15:41.419Z,0.10
2023-01-18T17:18:43.261Z,0.10
2023-01-18T17:21:46.330Z,0.10
2023-01-18T17:24:49.242Z,0.10
2023-01-18T17:27:51.119Z,0.00
2023-01-18T17:30:52.468Z,-0.10
2023-01-18T17:33:53.466Z,-0.10
2023-01-18T17:36:54.124Z,-0.20
2023-01-18T17:40:10.811Z,-0.30
2023-01-18T17:43:28.445Z,-0.40
2023-01-18T17:46:34.504Z,-0.70
2023-01-18T17:49:35.620Z,-0.80
2023-01-18T17:52:39.030Z,-0.80
2023-01-18T17:55:40.916Z,-0.80
2023-01-18T17:58:45.547Z,-0.80
2023-01-18T18:01:46.826Z,-0.90
2023-01-18T18:04:48.431Z,-0.90
2023-01-18T18:07:49.800Z,-0.90
2023-01-18T18:10:50.649Z,-0.90
2023-01-18T18:13:51.426Z,-0.90
2023-01-18T18:16:52.325Z,-0.80
2023-01-18T18:19:53.690Z,-0.80
2023-01-18T18:22:54.489Z,-0.80
2023-01-18T18:25:57.116Z,-0.80
2023-01-18T18:28:57.786Z,-0.80
2023-01-18T18:31:58.603Z,-0.80
2023-01-18T18:34:59.642Z,-0.90
2023-01-18T18:38:00.327Z,-0.90
2023-01-18T18:41:06.601Z,-0.90
2023-01-18T18:44:07.428Z,-0.80
2023-01-18T18:47:10.128Z,-0.80
2023-01-18T18:50:11.810Z,-0.80
2023-01-18T18:53:12.345Z,-0.80
2023-01-18T18:56:13.388Z,-0.80
2023-01-18T18:59:14.305Z,-0.80
2023-01-18T19:02:16.423Z,-0.90
2023-01-18T19:05:17.521Z,-0.80
2023-01-18T19:08:18.769Z,-0.80
2023-01-18T19:11:20.361Z,-0.90
2023-01-18T19:14:21.370Z,-0.90
2023-01-18T19:17:30.306Z,-0.90
2023-01-18T19:20:33.427Z,-0.90
2023-01-18T19:23:35.511Z,-0.90
2023-01-18T19:26:36.621Z,-0.90
2023-01-18T19:29:38.381Z,-0.90
2023-01-18T19:32:39.996Z,-0.90
2023-01-18T19:35:44.852Z,-0.90
2023-01-18T19:38:49.308Z,-0.90
2023-01-18T19:41:54.045Z,-0.90
2023-01-18T19:44:59.196Z,-0.90
2023-01-18T19:48:02.080Z,-0.90
2023-01-18T19:51:21.343Z,-0.90
2023-01-18T19:54:23.141Z,-0.90
2023-01-18T19:57:24.564Z,-0.90
2023-01-18T20:00:25.922Z,-0.90
2023-01-18T20:03:28.218Z,-0.90
2023-01-18T20:06:29.112Z,-0.90
2023-01-18T20:09:42.554Z,-0.90
2023-01-18T20:12:44.056Z,-0.90
2023-01-18T20:15:47.500Z,-0.90
2023-01-18T20:18:48.997Z,-0.90
2023-01-18T20:21:49.850Z,-0.90
2023-01-18T20:24:50.718Z,-0.90
2023-01-18T20:27:51.933Z,-0.90
2023-01-18T20:30:53.172Z,-0.90
2023-01-18T20:33:54.797Z,-0.90
2023-01-18T20:36:55.926Z,-1.00
2023-01-18T20:39:56.462Z,-1.00
2023-01-18T20:42:59.094Z,-1.00
2023-01-18T20:46:06.645Z,-1.00
2023-01-18T20:49:08.729Z,-1.00
2023-01-18T20:52:09.574Z,-1.00
2023-01-18T20:55:13.373Z,-1.00
2023-01-18T20:58:14.076Z,-1.00
2023-01-18T21:01:15.861Z,-1.00
2023-01-18T21:04:17.232Z,-1.00
2023-01-18T21:07:18.177Z,-1.00
2023-01-18T21:10:19.134Z,-1.00
2023-01-18T21:13:19.908Z,-1.00
2023-01-18T21:16:22.099Z,-1.00
2023-01-18T21:19:23.300Z,-1.00
2023-01-18T21:22:23.859Z,-1.00
2023-01-18T21:25:27.202Z,-1.10
2023-01-18T21:28:28.083Z,-1.00
2023-01-18T21:31:29.092Z,-1.00
2023-01-18T21:34:29.751Z,-1.00
2023-01-18T21:37:30.610Z,-0.90
2023-01-18T21:40:31.580Z,-1.00
2023-01-18T21:43:50.442Z,-1.10
2023-01-18T21:46:52.742Z,-1.10
2023-01-18T21:50:17.376Z,-1.10
2023-01-18T21:53:37.225Z,-1.10
2023-01-18T21:56:38.221Z,-1.10
2023-01-18T21:59:38.917Z,-1.00
2023-01-18T22:02:39.797Z,-1.00
2023-01-18T22:05:41.456Z,-1.00
2023-01-18T22:08:42.195Z,-1.00
2023-01-18T22:11:43.483Z,-1.10
2023-01-18T22:14:44.558Z,-1.10
2023-01-18T22:17:45.156Z,-1.10
2023-01-18T22:20:56.486Z,-1.10
2023-01-18T22:23:58.433Z,-1.10
2023-01-18T22:26:59.381Z,-1.10
2023-01-18T22:30:00.352Z,-1.10
2023-01-18T22:33:01.389Z,-1.10
2023-01-18T22:36:04.717Z,-1.10
2023-01-18T22:39:06.029Z,-1.10
2023-01-18T22:42:06.907Z,-1.20
2023-01-18T22:45:08.426Z,-1.20
2023-01-18T22:48:09.604Z,-1.20
2023-01-18T22:51:16.523Z,-1.30
2023-01-18T22:54:22.381Z,-1.30
2023-01-18T22:57:23.367Z,-1.30
2023-01-18T23:00:25.156Z,-1.30
2023-01-18T23:03:26.857Z,-1.40
2023-01-18T23:06:29.274Z,-1.40
2023-01-18T23:09:30.096Z,-1.50
2023-01-18T23:12:30.837Z,-1.60
2023-01-18T23:15:50.589Z,-1.60
2023-01-18T23:18:51.464Z,-1.70
2023-01-18T23:21:54.076Z,-1.70
2023-01-18T23:24:55.366Z,-1.70
2023-01-18T23:27:56.400Z,-1.70
2023-01-18T23:30:57.590Z,-1.70
2023-01-18T23:33:58.229Z,-1.70
2023-01-18T23:36:59.001Z,-1.70
2023-01-18T23:40:18.686Z,-1.70
2023-01-18T23:43:37.665Z,-1.70
2023-01-18T23:46:56.700Z,-1.80
2023-01-18T23:50:15.780Z,-1.80
2023-01-18T23:53:35.038Z,-1.90
2023-01-18T23:56:35.863Z,-1.90
2023-01-18T23:59:37.940Z,-1.90
